createdAt,value
2022-10-23T00:00:33.571Z,11.77
2022-10-23T00:03:00.830Z,10.40
2022-10-23T00:05:28.042Z,10.23
2022-10-23T00:07:55.673Z,10.35
2022-10-23T00:10:22.467Z,10.65
2022-10-23T00:12:49.300Z,9.98
2022-10-23T00:15:16.999Z,9.48
2022-10-23T00:17:43.756Z,9.45
2022-10-23T00:20:10.826Z,9.52
2022-10-23T00:22:37.311Z,9.20
2022-10-23T00:25:05.091Z,10.60
2022-10-23T00:27:31.608Z,9.45
2022-10-23T00:29:57.856Z,10.48
2022-10-23T00:32:24.167Z,10.15
2022-10-23T00:34:50.514Z,8.93
2022-10-23T00:37:16.894Z,9.60
2022-10-23T00:39:43.146Z,9.68
2022-10-23T00:42:13.944Z,8.98
2022-10-23T00:47:06.357Z,8.77
2022-10-23T00:49:34.415Z,8.80
2022-10-23T00:52:01.997Z,9.35
2022-10-23T00:54:31.016Z,9.68
2022-10-23T00:56:59.560Z,9.50
2022-10-23T00:59:26.092Z,9.25
2022-10-23T01:01:52.517Z,9.00
2022-10-23T01:04:19.049Z,8.63
2022-10-23T01:06:49.007Z,9.10
2022-10-23T01:09:34.060Z,8.87
2022-10-23T01:12:18.622Z,7.55
2022-10-23T01:14:55.103Z,8.07
2022-10-23T01:17:33.383Z,9.05
2022-10-23T01:20:18.373Z,8.10
2022-10-23T01:22:50.795Z,7.65
2022-10-23T01:25:20.041Z,7.50
2022-10-23T01:27:50.057Z,8.13
2022-10-23T01:30:17.211Z,8.38
2022-10-23T01:32:58.118Z,9.13
2022-10-23T01:37:54.994Z,8.63
2022-10-23T01:40:37.412Z,8.73
2022-10-23T01:43:09.230Z,9.55
2022-10-23T01:45:57.101Z,9.68
2022-10-23T01:48:25.124Z,9.70
2022-10-23T01:50:53.103Z,9.38
2022-10-23T01:53:20.348Z,12.45
2022-10-23T01:55:47.468Z,10.65
2022-10-23T01:58:15.106Z,10.25
2022-10-23T02:00:43.034Z,9.52
2022-10-23T02:03:09.362Z,10.00
2022-10-23T02:05:35.762Z,11.25
2022-10-23T02:08:02.333Z,10.07
2022-10-23T02:10:39.662Z,10.23
2022-10-23T02:13:10.928Z,9.40
2022-10-23T02:15:40.767Z,9.80
2022-10-23T02:18:13.274Z,9.95
2022-10-23T02:20:48.230Z,9.70
2022-10-23T02:23:33.466Z,10.65
2022-10-23T02:26:02.460Z,10.63
2022-10-23T02:28:31.932Z,13.10
2022-10-23T02:30:59.561Z,12.38
2022-10-23T02:33:27.390Z,13.18
2022-10-23T02:35:53.694Z,11.93
2022-10-23T02:38:28.680Z,10.75
2022-10-23T02:40:56.412Z,10.07
2022-10-23T02:43:30.395Z,11.00
2022-10-23T02:45:59.896Z,10.05
2022-10-23T02:48:33.072Z,9.90
2022-10-23T02:51:14.248Z,9.73
2022-10-23T02:53:40.513Z,11.25
2022-10-23T02:56:20.884Z,11.55
2022-10-23T02:58:54.731Z,11.10
2022-10-23T03:01:22.859Z,10.63
2022-10-23T03:03:52.314Z,10.27
2022-10-23T03:06:18.959Z,10.05
2022-10-23T03:08:48.951Z,10.50
2022-10-23T03:11:15.274Z,10.82
2022-10-23T03:13:41.526Z,9.60
2022-10-23T03:16:07.879Z,10.20
2022-10-23T03:18:34.194Z,10.93
2022-10-23T03:21:00.592Z,10.50
2022-10-23T03:23:26.899Z,10.35
2022-10-23T03:25:53.509Z,11.32
2022-10-23T03:28:20.052Z,10.93
2022-10-23T03:30:46.294Z,9.50
2022-10-23T03:33:12.561Z,9.63
2022-10-23T03:35:38.845Z,10.98
2022-10-23T03:38:05.139Z,10.07
2022-10-23T03:40:31.410Z,9.48
2022-10-23T03:42:57.814Z,10.00
2022-10-23T03:45:24.341Z,11.25
2022-10-23T03:47:51.707Z,11.05
2022-10-23T03:50:18.581Z,11.27
2022-10-23T03:52:45.541Z,12.43
2022-10-23T03:55:12.014Z,12.40
2022-10-23T03:57:38.461Z,12.30
2022-10-23T04:00:05.696Z,10.27
2022-10-23T04:02:32.017Z,11.30
2022-10-23T04:04:59.535Z,10.57
2022-10-23T04:07:25.801Z,9.57
2022-10-23T04:09:52.054Z,9.38
2022-10-23T04:12:18.485Z,9.07
2022-10-23T04:14:44.746Z,9.65
2022-10-23T04:17:10.990Z,8.90
2022-10-23T04:19:37.220Z,10.65
2022-10-23T04:22:03.467Z,9.57
2022-10-23T04:24:29.716Z,9.63
2022-10-23T04:26:55.963Z,9.82
2022-10-23T04:29:24.448Z,10.00
2022-10-23T04:31:51.419Z,9.85
2022-10-23T04:34:18.639Z,11.05
2022-10-23T04:36:44.945Z,10.60
2022-10-23T04:39:11.175Z,9.77
2022-10-23T04:41:38.900Z,9.75
2022-10-23T04:44:05.158Z,9.25
2022-10-23T04:46:31.425Z,9.43
2022-10-23T04:48:57.682Z,9.38
2022-10-23T04:51:23.969Z,9.32
2022-10-23T04:53:50.258Z,9.20
2022-10-23T04:56:16.598Z,10.75
2022-10-23T04:58:42.870Z,10.43
2022-10-23T05:01:12.311Z,11.25
2022-10-23T05:03:38.820Z,10.05
2022-10-23T05:06:05.336Z,10.48
2022-10-23T05:08:31.631Z,8.88
2022-10-23T05:10:57.856Z,10.48
2022-10-23T05:13:24.158Z,10.43
2022-10-23T05:15:51.087Z,8.88
2022-10-23T05:18:21.924Z,10.43
2022-10-23T05:23:15.778Z,9.68
2022-10-23T05:25:42.017Z,10.90
2022-10-23T05:28:08.289Z,10.30
2022-10-23T05:30:34.733Z,11.15
2022-10-23T05:33:01.991Z,10.90
2022-10-23T05:35:29.455Z,10.55
2022-10-23T05:37:56.559Z,11.07
2022-10-23T05:40:22.849Z,11.95
2022-10-23T05:42:49.230Z,10.65
2022-10-23T05:45:15.730Z,11.07
2022-10-23T05:47:43.774Z,11.13
2022-10-23T05:50:10.084Z,10.95
2022-10-23T05:52:36.385Z,11.43
2022-10-23T05:55:02.713Z,11.35
2022-10-23T05:57:31.838Z,11.05
2022-10-23T05:59:58.071Z,11.10
2022-10-23T06:02:24.445Z,11.00
2022-10-23T06:04:50.743Z,10.65
2022-10-23T06:07:16.994Z,10.57
2022-10-23T06:09:43.269Z,11.45
2022-10-23T06:12:09.589Z,10.75
2022-10-23T06:14:35.857Z,11.32
2022-10-23T06:17:02.089Z,10.95
2022-10-23T06:19:28.531Z,10.38
2022-10-23T06:21:54.828Z,11.07
2022-10-23T06:24:21.226Z,10.70
2022-10-23T06:26:47.443Z,12.27
2022-10-23T06:29:13.721Z,11.25
2022-10-23T06:31:39.952Z,9.93
2022-10-23T06:34:06.195Z,11.10
2022-10-23T06:36:32.484Z,10.90
2022-10-23T06:41:26.101Z,10.77
2022-10-23T06:43:53.242Z,10.38
2022-10-23T06:46:19.844Z,11.23
2022-10-23T06:48:46.355Z,11.35
2022-10-23T06:51:16.597Z,10.10
2022-10-23T06:53:43.345Z,11.98
2022-10-23T06:56:10.072Z,11.57
2022-10-23T06:58:37.402Z,11.52
2022-10-23T07:01:05.331Z,10.23
2022-10-23T07:03:31.901Z,10.52
2022-10-23T07:06:02.213Z,10.30
2022-10-23T07:08:28.916Z,10.48
2022-10-23T07:10:55.206Z,9.50
2022-10-23T07:13:22.383Z,10.80
2022-10-23T07:15:48.636Z,10.38
2022-10-23T07:18:16.451Z,11.32
2022-10-23T07:20:42.969Z,10.32
2022-10-23T07:23:10.920Z,10.18
2022-10-23T07:25:37.673Z,10.25
2022-10-23T07:28:04.554Z,9.00
2022-10-23T07:30:31.127Z,9.93
2022-10-23T07:32:57.366Z,9.70
2022-10-23T07:35:23.779Z,9.75
2022-10-23T07:37:50.057Z,10.27
2022-10-23T07:40:17.220Z,9.05
2022-10-23T07:42:43.469Z,10.05
2022-10-23T07:45:10.187Z,10.07
2022-10-23T07:47:36.654Z,9.45
2022-10-23T07:50:02.967Z,9.20
2022-10-23T07:52:32.091Z,8.93
2022-10-23T07:55:01.327Z,9.38
2022-10-23T07:57:27.608Z,8.95
2022-10-23T07:59:54.531Z,9.43
2022-10-23T08:02:20.922Z,9.57
2022-10-23T08:04:48.687Z,8.50
2022-10-23T08:07:17.970Z,8.70
2022-10-23T08:09:46.669Z,9.40
2022-10-23T08:12:12.925Z,8.25
2022-10-23T08:14:41.619Z,8.43
2022-10-23T08:17:09.825Z,8.65
2022-10-23T08:19:39.983Z,8.55
2022-10-23T08:22:07.449Z,8.03
2022-10-23T08:24:33.709Z,8.25
2022-10-23T08:27:00.025Z,9.13
2022-10-23T08:29:26.383Z,8.07
2022-10-23T08:31:54.787Z,7.75
2022-10-23T08:34:21.097Z,8.32
2022-10-23T08:36:47.407Z,7.80
2022-10-23T08:39:13.666Z,7.68
2022-10-23T08:41:50.649Z,6.85
2022-10-23T08:44:20.561Z,7.38
2022-10-23T08:46:56.385Z,7.63
2022-10-23T08:49:37.868Z,7.70
2022-10-23T08:52:13.266Z,6.93
2022-10-23T08:54:40.392Z,7.18
2022-10-23T08:57:12.859Z,7.47
2022-10-23T08:59:50.309Z,7.05
2022-10-23T09:02:20.496Z,6.40
2022-10-23T09:04:50.317Z,6.32
2022-10-23T09:07:29.576Z,6.18
2022-10-23T09:10:05.346Z,6.60
2022-10-23T09:12:31.921Z,6.20
2022-10-23T09:15:17.045Z,5.97
2022-10-23T09:17:48.842Z,6.13
2022-10-23T09:20:28.704Z,5.47
2022-10-23T09:23:02.011Z,5.70
2022-10-23T09:25:37.252Z,5.50
2022-10-23T09:28:05.547Z,5.68
2022-10-23T09:30:42.694Z,7.35
2022-10-23T09:33:26.689Z,7.22
2022-10-23T09:35:53.096Z,6.05
2022-10-23T09:38:31.790Z,7.20
2022-10-23T09:41:33.229Z,8.00
2022-10-23T09:44:08.702Z,6.82
2022-10-23T09:46:39.622Z,5.70
2022-10-23T09:49:09.393Z,5.53
2022-10-23T09:51:35.721Z,5.70
2022-10-23T09:54:04.203Z,5.32
2022-10-23T09:56:39.565Z,5.30
2022-10-23T09:59:12.033Z,5.25
2022-10-23T10:01:55.659Z,5.40
2022-10-23T10:04:32.101Z,4.65
2022-10-23T10:06:59.413Z,4.88
2022-10-23T10:09:26.669Z,5.47
2022-10-23T10:11:54.642Z,6.47
2022-10-23T10:14:27.024Z,5.10
2022-10-23T10:17:05.496Z,7.03
2022-10-23T10:19:39.999Z,5.93
2022-10-23T10:22:25.288Z,4.50
2022-10-23T10:25:10.083Z,10.95
2022-10-23T10:27:51.971Z,16.25
2022-10-23T10:30:19.370Z,6.50
2022-10-23T10:32:59.094Z,6.03
2022-10-23T10:35:29.340Z,5.72
2022-10-23T10:38:14.666Z,4.72
2022-10-23T10:40:46.969Z,4.57
2022-10-23T10:43:32.194Z,4.63
2022-10-23T10:46:07.665Z,4.80
2022-10-23T10:48:51.657Z,4.20
2022-10-23T10:51:38.189Z,3.90
2022-10-23T10:54:10.249Z,4.20
2022-10-23T10:56:39.366Z,4.70
2022-10-23T10:59:23.263Z,3.92
2022-10-23T11:01:53.341Z,5.30
2022-10-23T11:04:35.362Z,5.47
2022-10-23T11:07:05.219Z,4.97
2022-10-23T11:09:31.682Z,4.70
2022-10-23T11:12:00.803Z,5.10
2022-10-23T11:14:29.085Z,5.32
2022-10-23T11:17:09.688Z,3.60
2022-10-23T11:19:45.189Z,5.18
2022-10-23T11:22:39.270Z,5.20
2022-10-23T11:25:22.075Z,5.85
2022-10-23T11:27:49.740Z,5.07
2022-10-23T11:30:19.261Z,3.60
2022-10-23T11:33:15.546Z,8.88
2022-10-23T11:35:47.957Z,4.47
2022-10-23T11:38:18.943Z,3.35
2022-10-23T11:43:34.005Z,3.20
2022-10-23T11:46:16.436Z,3.25
2022-10-23T11:48:43.948Z,4.28
2022-10-23T11:51:29.111Z,4.78
2022-10-23T11:56:55.548Z,3.60
2022-10-23T11:59:30.328Z,3.22
2022-10-23T12:02:02.595Z,2.38
2022-10-23T12:04:35.036Z,3.17
2022-10-23T12:07:05.804Z,3.17
2022-10-23T12:09:53.769Z,2.95
2022-10-23T12:12:28.866Z,3.72
2022-10-23T12:15:06.711Z,3.33
2022-10-23T12:17:43.839Z,4.82
2022-10-23T12:20:10.454Z,4.03
2022-10-23T12:22:39.635Z,7.00
2022-10-23T12:25:12.513Z,3.70
2022-10-23T12:27:48.772Z,3.70
2022-10-23T12:30:28.863Z,3.13
2022-10-23T12:33:15.478Z,3.33
2022-10-23T12:35:53.782Z,2.90
2022-10-23T12:38:21.862Z,2.80
2022-10-23T12:40:52.141Z,2.90
2022-10-23T12:43:26.162Z,2.80
2022-10-23T12:45:52.901Z,2.60
2022-10-23T12:48:21.247Z,3.03
2022-10-23T12:50:51.904Z,2.63
2022-10-23T12:58:40.821Z,2.45
2022-10-23T13:01:07.317Z,2.83
2022-10-23T13:03:34.028Z,2.47
2022-10-23T13:06:32.554Z,2.72
2022-10-23T13:09:01.479Z,2.92
2022-10-23T13:11:28.044Z,2.35
2022-10-23T13:13:54.389Z,2.75
2022-10-23T13:16:22.065Z,2.70
2022-10-23T13:18:48.891Z,3.05
2022-10-23T13:21:22.397Z,2.90
2022-10-23T13:23:48.917Z,2.92
2022-10-23T13:26:23.668Z,5.50
2022-10-23T13:28:53.660Z,3.90
2022-10-23T13:31:25.048Z,2.58
2022-10-23T13:34:06.174Z,3.08
2022-10-23T13:36:39.515Z,2.55
2022-10-23T13:39:11.713Z,2.97
2022-10-23T13:41:37.944Z,2.17
2022-10-23T13:44:16.235Z,2.17
2022-10-23T13:50:41.817Z,2.33
2022-10-23T13:53:22.747Z,2.50
2022-10-23T13:55:52.492Z,2.45
2022-10-23T13:58:21.151Z,2.33
2022-10-23T14:00:50.401Z,2.40
2022-10-23T14:03:17.330Z,2.38
2022-10-23T14:05:43.869Z,2.42
2022-10-23T14:08:13.301Z,2.28
2022-10-23T14:10:42.593Z,2.50
2022-10-23T14:13:10.744Z,2.60
2022-10-23T14:15:37.014Z,2.47
2022-10-23T14:18:07.328Z,2.22
2022-10-23T14:20:34.569Z,2.08
2022-10-23T14:23:00.837Z,2.25
2022-10-23T14:25:27.062Z,2.40
2022-10-23T14:27:53.302Z,2.45
2022-10-23T14:30:19.561Z,2.30
2022-10-23T14:32:46.292Z,2.40
2022-10-23T14:35:12.719Z,2.38
2022-10-23T14:37:39.381Z,2.30
2022-10-23T14:40:06.195Z,2.63
2022-10-23T14:42:34.338Z,2.70
2022-10-23T14:45:02.508Z,2.58
2022-10-23T14:47:28.835Z,2.75
2022-10-23T14:49:56.118Z,2.72
2022-10-23T14:52:25.540Z,2.42
2022-10-23T14:54:53.230Z,2.65
2022-10-23T14:57:21.512Z,3.03
2022-10-23T14:59:50.747Z,3.78
2022-10-23T15:02:17.617Z,2.97
2022-10-23T15:04:44.085Z,4.07
2022-10-23T15:07:10.339Z,3.10
2022-10-23T15:09:37.324Z,3.30
2022-10-23T15:12:04.294Z,5.63
2022-10-23T15:14:30.654Z,6.80
2022-10-23T15:16:56.942Z,4.57
2022-10-23T15:19:23.447Z,6.72
2022-10-23T15:21:49.758Z,4.57
2022-10-23T15:24:16.723Z,7.30
2022-10-23T15:26:43.899Z,5.05
2022-10-23T15:29:11.197Z,5.35
2022-10-23T15:31:37.591Z,5.28
2022-10-23T15:34:07.928Z,3.70
2022-10-23T15:36:38.134Z,3.38
2022-10-23T15:39:08.881Z,3.17
2022-10-23T15:41:36.100Z,2.67
2022-10-23T15:44:02.828Z,2.97
2022-10-23T15:46:29.245Z,2.50
2022-10-23T15:48:55.459Z,3.13
2022-10-23T15:51:21.676Z,2.67
2022-10-23T15:53:48.078Z,3.20
2022-10-23T15:56:14.410Z,2.90
2022-10-23T15:58:40.643Z,3.22
2022-10-23T16:01:06.996Z,3.10
2022-10-23T16:03:34.328Z,3.17
2022-10-23T16:06:03.453Z,2.80
2022-10-23T16:08:29.747Z,3.13
2022-10-23T16:10:56.022Z,3.40
2022-10-23T16:13:22.310Z,3.42
2022-10-23T16:15:48.547Z,3.03
2022-10-23T16:18:16.294Z,3.30
2022-10-23T16:23:55.630Z,2.67
2022-10-23T16:26:22.452Z,2.58
2022-10-23T16:28:52.271Z,3.45
2022-10-23T16:31:20.511Z,2.90
2022-10-23T16:33:47.811Z,3.00
2022-10-23T16:36:14.134Z,3.72
2022-10-23T16:38:40.402Z,3.40
2022-10-23T16:41:07.219Z,3.63
2022-10-23T16:43:33.716Z,3.70
2022-10-23T16:46:14.066Z,4.05
2022-10-23T16:48:40.585Z,4.15
2022-10-23T16:51:07.792Z,4.60
2022-10-23T16:53:35.839Z,5.00
2022-10-23T16:56:06.403Z,3.78
2022-10-23T16:58:33.222Z,3.53
2022-10-23T17:01:05.981Z,3.28
2022-10-23T17:03:40.487Z,3.47
2022-10-23T17:06:08.951Z,7.95
2022-10-23T17:11:24.131Z,5.90
2022-10-23T17:13:58.651Z,6.20
2022-10-23T17:16:27.948Z,4.10
2022-10-23T17:18:54.490Z,6.57
2022-10-23T17:21:21.590Z,5.57
2022-10-23T17:23:48.031Z,5.72
2022-10-23T17:26:16.888Z,5.40
2022-10-23T17:28:46.523Z,5.75
2022-10-23T17:31:17.560Z,7.07
2022-10-23T17:33:44.344Z,5.80
2022-10-23T17:36:11.417Z,5.00
2022-10-23T17:38:38.839Z,5.07
2022-10-23T17:41:05.621Z,5.90
2022-10-23T17:43:31.854Z,3.05
2022-10-23T17:45:58.270Z,2.78
2022-10-23T17:48:25.179Z,3.20
2022-10-23T17:51:00.464Z,4.07
2022-10-23T17:53:26.702Z,4.90
2022-10-23T17:55:55.349Z,5.18
2022-10-23T17:58:21.753Z,4.50
2022-10-23T18:00:49.357Z,4.18
2022-10-23T18:03:19.727Z,4.68
2022-10-23T18:08:15.401Z,4.75
2022-10-23T18:10:41.654Z,5.05
2022-10-23T18:13:07.887Z,5.95
2022-10-23T18:15:35.664Z,4.80
2022-10-23T18:18:07.635Z,7.28
2022-10-23T18:20:38.424Z,9.55
2022-10-23T18:23:04.683Z,4.13
2022-10-23T18:25:30.918Z,6.10
2022-10-23T18:28:01.705Z,6.70
2022-10-23T18:30:28.975Z,6.80
2022-10-23T18:32:58.018Z,4.55
2022-10-23T18:35:24.698Z,4.75
2022-10-23T18:37:51.101Z,5.93
2022-10-23T18:40:17.466Z,5.13
2022-10-23T18:42:44.018Z,5.30
2022-10-23T18:45:19.340Z,4.70
2022-10-23T18:47:46.107Z,5.90
2022-10-23T18:50:12.692Z,8.82
2022-10-23T18:52:38.938Z,7.10
2022-10-23T18:55:06.288Z,6.47
2022-10-23T18:57:41.095Z,3.45
2022-10-23T19:00:11.362Z,3.40
2022-10-23T19:02:52.155Z,3.78
2022-10-23T19:05:21.479Z,3.70
2022-10-23T19:07:52.310Z,3.58
2022-10-23T19:10:33.651Z,3.88
2022-10-23T19:13:03.015Z,3.60
2022-10-23T19:15:33.972Z,3.88
2022-10-23T19:18:15.460Z,3.72
2022-10-23T19:20:45.136Z,3.47
2022-10-23T19:23:13.961Z,3.67
2022-10-23T19:25:46.532Z,3.92
2022-10-23T19:30:41.905Z,4.00
2022-10-23T19:33:14.296Z,3.80
2022-10-23T19:35:43.073Z,3.50
2022-10-23T19:38:11.912Z,4.38
2022-10-23T19:40:56.402Z,3.90
2022-10-23T19:43:24.993Z,3.70
2022-10-23T19:46:10.955Z,3.70
2022-10-23T19:48:42.229Z,3.50
2022-10-23T19:51:13.957Z,3.97
2022-10-23T19:53:41.233Z,4.03
2022-10-23T19:56:32.519Z,5.07
2022-10-23T19:58:58.791Z,4.22
2022-10-23T20:01:34.233Z,3.63
2022-10-23T20:04:10.869Z,3.13
2022-10-23T20:06:44.294Z,3.15
2022-10-23T20:09:10.812Z,2.65
2022-10-23T20:11:42.743Z,3.22
2022-10-23T20:14:09.155Z,3.13
2022-10-23T20:16:38.636Z,2.63
2022-10-23T20:21:44.463Z,2.67
2022-10-23T20:24:11.697Z,1.85
2022-10-23T20:26:45.523Z,1.80
2022-10-23T20:29:15.613Z,2.13
2022-10-23T20:31:45.186Z,1.83
2022-10-23T20:34:11.858Z,1.70
2022-10-23T20:36:45.448Z,1.50
2022-10-23T20:39:14.683Z,1.77
2022-10-23T20:41:44.957Z,1.50
2022-10-23T20:44:12.970Z,1.58
2022-10-23T20:46:39.803Z,1.50
2022-10-23T20:49:06.062Z,1.20
2022-10-23T20:51:32.565Z,1.30
2022-10-23T20:54:02.012Z,1.75
2022-10-23T20:56:31.290Z,2.05
2022-10-23T20:59:02.109Z,1.60
2022-10-23T21:01:29.026Z,1.50
2022-10-23T21:03:57.027Z,1.40
2022-10-23T21:06:23.851Z,1.30
2022-10-23T21:08:53.818Z,1.08
2022-10-23T21:11:20.054Z,1.48
2022-10-23T21:13:46.348Z,1.33
2022-10-23T21:16:24.862Z,1.90
2022-10-23T21:18:54.704Z,1.50
2022-10-23T21:21:21.058Z,1.63
2022-10-23T21:23:47.949Z,1.40
2022-10-23T21:26:14.223Z,1.33
2022-10-23T21:28:47.287Z,1.52
2022-10-23T21:31:22.206Z,1.27
2022-10-23T21:33:48.973Z,1.40
2022-10-23T21:36:19.890Z,1.52
2022-10-23T21:38:47.108Z,1.55
2022-10-23T21:41:15.465Z,1.67
2022-10-23T21:43:42.009Z,1.30
2022-10-23T21:46:13.373Z,1.00
2022-10-23T21:48:39.751Z,1.08
2022-10-23T21:51:06.088Z,1.20
2022-10-23T21:53:32.808Z,1.20
2022-10-23T21:56:03.216Z,1.52
2022-10-23T21:58:29.444Z,1.30
2022-10-23T22:00:55.763Z,1.52
2022-10-23T22:03:22.138Z,1.40
2022-10-23T22:05:48.481Z,1.35
2022-10-23T22:08:14.755Z,1.20
2022-10-23T22:10:41.020Z,1.13
2022-10-23T22:13:07.264Z,1.50
2022-10-23T22:15:33.624Z,1.67
2022-10-23T22:18:00.398Z,1.33
2022-10-23T22:20:26.689Z,1.73
2022-10-23T22:22:52.981Z,1.50
2022-10-23T22:25:19.224Z,1.30
2022-10-23T22:27:45.701Z,1.88
2022-10-23T22:30:12.385Z,2.10
2022-10-23T22:32:38.622Z,1.92
2022-10-23T22:35:05.141Z,2.05
2022-10-23T22:37:31.381Z,2.22
2022-10-23T22:39:57.694Z,1.90
2022-10-23T22:42:23.917Z,2.10
2022-10-23T22:44:50.184Z,2.28
2022-10-23T22:47:16.405Z,2.15
2022-10-23T22:49:42.695Z,2.05
2022-10-23T22:52:08.936Z,2.20
2022-10-23T22:54:35.154Z,1.70
2022-10-23T22:57:01.418Z,1.65
2022-10-23T22:59:27.844Z,2.28
2022-10-23T23:01:54.409Z,1.95
2022-10-23T23:07:08.754Z,1.60
2022-10-23T23:09:35.766Z,1.80
2022-10-23T23:12:02.034Z,1.90
2022-10-23T23:14:28.281Z,1.90
2022-10-23T23:16:54.604Z,1.77
2022-10-23T23:19:23.189Z,1.80
2022-10-23T23:21:49.709Z,1.58
2022-10-23T23:24:15.984Z,1.70
2022-10-23T23:26:42.337Z,2.05
2022-10-23T23:29:08.608Z,1.77
2022-10-23T23:31:34.862Z,2.10
2022-10-23T23:34:01.140Z,2.00
2022-10-23T23:36:27.625Z,2.30
2022-10-23T23:38:55.220Z,2.40
2022-10-23T23:41:21.682Z,2.33
2022-10-23T23:43:48.476Z,2.40
2022-10-23T23:46:15.335Z,2.53
2022-10-23T23:48:42.591Z,2.58
2022-10-23T23:51:09.143Z,2.35
2022-10-23T23:53:35.477Z,2.67
2022-10-23T23:56:01.719Z,2.53
2022-10-23T23:58:27.953Z,2.75
